createdAt,value
2018-06-09T00:00:50.266Z,77.06
2018-06-09T00:01:50.253Z,77.34
2018-06-09T00:02:50.247Z,78.11
2018-06-09T00:03:50.242Z,76.86
2018-06-09T00:04:50.242Z,78.59
2018-06-09T00:05:50.242Z,78.98
2018-06-09T00:06:50.239Z,78.40
2018-06-09T00:07:50.232Z,78.50
2018-06-09T00:08:50.233Z,75.62
2018-06-09T00:09:50.214Z,68.60
2018-06-09T00:10:50.218Z,78.30
2018-06-09T00:11:50.213Z,80.42
2018-06-09T00:12:50.208Z,80.80
2018-06-09T00:13:50.201Z,78.30
2018-06-09T00:14:50.198Z,81.76
2018-06-09T00:15:50.198Z,75.81
2018-06-09T00:16:50.197Z,77.53
2018-06-09T00:17:50.191Z,78.59
2018-06-09T00:18:50.178Z,77.63
2018-06-09T00:19:50.177Z,79.84
2018-06-09T00:20:50.174Z,83.40
2018-06-09T00:21:50.166Z,83.97
2018-06-09T00:22:50.176Z,82.43
2018-06-09T00:23:50.160Z,78.21
2018-06-09T00:24:50.159Z,81.19
2018-06-09T00:25:50.152Z,83.64
2018-06-09T00:26:50.149Z,80.80
2018-06-09T00:27:50.152Z,78.84
2018-06-09T00:28:50.142Z,78.30
2018-06-09T00:29:50.134Z,78.27
2018-06-09T00:30:50.128Z,81.38
2018-06-09T00:31:50.131Z,79.03
2018-06-09T00:32:50.899Z,77.11
2018-06-09T00:33:50.122Z,79.71
2018-06-09T00:34:50.117Z,76.73
2018-06-09T00:35:50.114Z,77.88
2018-06-09T00:36:50.109Z,77.73
2018-06-09T00:37:50.098Z,75.10
2018-06-09T00:38:50.095Z,76.54
2018-06-09T00:39:50.091Z,75.20
2018-06-09T00:40:50.091Z,71.16
2018-06-09T00:41:50.082Z,78.17
2018-06-09T00:42:50.078Z,77.40
2018-06-09T00:43:50.076Z,75.87
2018-06-09T00:44:50.071Z,71.55
2018-06-09T00:45:50.070Z,76.73
2018-06-09T00:46:50.068Z,76.34
2018-06-09T00:47:50.051Z,73.41
2018-06-09T00:48:50.053Z,70.78
2018-06-09T00:49:50.051Z,72.50
2018-06-09T00:50:50.046Z,72.12
2018-06-09T00:51:50.053Z,74.04
2018-06-09T00:52:50.036Z,66.93
2018-06-09T00:53:50.032Z,75.29
2018-06-09T00:54:50.029Z,74.23
2018-06-09T00:55:50.018Z,75.10
2018-06-09T00:56:50.027Z,75.77
2018-06-09T00:57:50.011Z,69.05
2018-06-09T00:58:50.008Z,72.41
2018-06-09T00:59:50.007Z,73.08
2018-06-09T01:00:50.001Z,71.45
2018-06-09T01:01:49.996Z,74.81
2018-06-09T01:02:49.991Z,74.13
2018-06-09T01:03:49.990Z,74.13
2018-06-09T01:04:49.981Z,73.94
2018-06-09T01:05:49.977Z,73.08
2018-06-09T01:06:49.971Z,76.54
2018-06-09T01:07:49.973Z,74.52
2018-06-09T01:08:49.963Z,71.64
2018-06-09T01:09:49.969Z,75.29
2018-06-09T01:10:49.965Z,74.81
2018-06-09T01:11:49.949Z,72.99
2018-06-09T01:12:49.956Z,72.89
2018-06-09T01:13:49.943Z,74.33
2018-06-09T01:14:49.939Z,77.11
2018-06-09T01:15:49.938Z,76.73
2018-06-09T01:16:49.927Z,75.29
2018-06-09T01:17:49.924Z,74.04
2018-06-09T01:18:49.926Z,76.92
2018-06-09T01:19:49.919Z,77.21
2018-06-09T01:20:49.915Z,77.50
2018-06-09T01:21:49.915Z,75.87
2018-06-09T01:22:49.899Z,75.38
2018-06-09T01:23:49.897Z,75.20
2018-06-09T01:24:49.894Z,76.54
2018-06-09T01:25:49.890Z,79.61
2018-06-09T01:26:49.890Z,78.17
2018-06-09T01:27:49.882Z,77.01
2018-06-09T01:28:49.876Z,77.11
2018-06-09T01:29:49.876Z,78.55
2018-06-09T01:30:49.871Z,79.22
2018-06-09T01:31:49.860Z,77.50
2018-06-09T01:32:49.857Z,72.89
2018-06-09T01:33:49.859Z,78.75
2018-06-09T01:34:49.852Z,78.36
2018-06-09T01:35:49.846Z,76.15
2018-06-09T01:36:49.841Z,82.49
2018-06-09T01:37:49.837Z,77.01
2018-06-09T01:38:49.841Z,78.17
2018-06-09T01:39:49.830Z,78.65
2018-06-09T01:40:49.820Z,80.57
2018-06-09T01:41:49.811Z,80.28
2018-06-09T01:42:49.817Z,78.27
2018-06-09T01:43:49.810Z,79.52
2018-06-09T01:44:49.803Z,79.52
2018-06-09T01:45:49.796Z,75.77
2018-06-09T01:46:49.798Z,79.03
2018-06-09T01:47:49.791Z,79.80
2018-06-09T01:48:49.791Z,77.98
2018-06-09T01:49:49.776Z,78.84
2018-06-09T01:50:49.775Z,82.10
2018-06-09T01:51:49.768Z,77.01
2018-06-09T01:52:49.770Z,77.78
2018-06-09T01:53:49.764Z,84.41
2018-06-09T01:54:49.758Z,79.52
2018-06-09T01:55:49.759Z,73.46
2018-06-09T01:56:49.752Z,80.66
2018-06-09T01:57:49.746Z,83.74
2018-06-09T01:58:49.739Z,80.19
2018-06-09T01:59:49.736Z,84.60
2018-06-09T02:00:49.728Z,80.57
2018-06-09T02:01:49.771Z,83.74
2018-06-09T02:02:49.723Z,81.63
2018-06-09T02:03:49.720Z,84.41
2018-06-09T02:04:49.714Z,78.84
2018-06-09T02:05:49.708Z,84.60
2018-06-09T02:06:49.707Z,81.72
2018-06-09T02:07:49.701Z,83.84
2018-06-09T02:08:49.699Z,81.15
2018-06-09T02:09:49.692Z,78.08
2018-06-09T02:10:49.686Z,82.68
2018-06-09T02:11:49.685Z,83.26
2018-06-09T02:12:49.721Z,79.03
2018-06-09T02:13:49.670Z,86.52
2018-06-09T02:14:49.668Z,84.22
2018-06-09T02:15:49.664Z,84.12
2018-06-09T02:16:49.663Z,86.33
2018-06-09T02:17:49.656Z,83.26
2018-06-09T02:18:49.652Z,88.64
2018-06-09T02:19:49.644Z,87.58
2018-06-09T02:20:49.640Z,88.64
2018-06-09T02:21:49.640Z,88.25
2018-06-09T02:22:49.635Z,84.41
2018-06-09T02:23:49.630Z,83.93
2018-06-09T02:24:49.626Z,85.08
2018-06-09T02:25:49.617Z,87.68
2018-06-09T02:26:49.620Z,86.43
2018-06-09T02:27:49.611Z,82.87
2018-06-09T02:28:49.607Z,87.10
2018-06-09T02:29:49.600Z,87.77
2018-06-09T02:30:49.599Z,84.89
2018-06-09T02:31:49.595Z,86.62
2018-06-09T02:32:49.589Z,85.75
2018-06-09T02:33:49.582Z,85.57
2018-06-09T02:34:49.575Z,85.66
2018-06-09T02:35:49.577Z,85.62
2018-06-09T02:36:49.572Z,79.47
2018-06-09T02:37:49.582Z,81.30
2018-06-09T02:38:49.561Z,83.93
2018-06-09T02:39:49.556Z,69.97
2018-06-09T02:40:49.554Z,67.96
2018-06-09T02:41:49.544Z,61.72
2018-06-09T02:42:49.545Z,58.26
2018-06-09T02:43:49.539Z,56.89
2018-06-09T02:44:49.531Z,54.01
2018-06-09T02:45:49.529Z,53.12
2018-06-09T02:46:49.546Z,52.55
2018-06-09T02:47:49.518Z,52.16
2018-06-09T02:48:49.517Z,50.03
2018-06-09T02:49:49.507Z,50.12
2018-06-09T02:50:49.506Z,47.25
2018-06-09T02:51:49.499Z,46.48
2018-06-09T02:52:49.497Z,41.78
2018-06-09T02:53:49.495Z,38.72
2018-06-09T02:54:49.481Z,38.05
2018-06-09T02:55:49.481Z,39.01
2018-06-09T02:56:49.476Z,36.99
2018-06-09T02:57:49.476Z,32.86
2018-06-09T02:58:49.467Z,34.50
2018-06-09T02:59:49.459Z,33.45
2018-06-09T03:00:49.456Z,35.36
2018-06-09T03:01:49.448Z,33.83
2018-06-09T03:02:49.444Z,32.39
2018-06-09T03:03:49.440Z,28.46
2018-06-09T03:04:49.433Z,29.52
2018-06-09T03:05:49.431Z,29.52
2018-06-09T03:06:49.423Z,29.80
2018-06-09T03:07:49.421Z,34.29
2018-06-09T03:08:49.412Z,30.75
2018-06-09T03:09:49.405Z,35.06
2018-06-09T03:10:49.399Z,32.76
2018-06-09T03:11:49.392Z,34.20
2018-06-09T03:12:49.397Z,31.42
2018-06-09T03:13:49.389Z,31.71
2018-06-09T03:14:49.383Z,30.18
2018-06-09T03:15:49.373Z,30.09
2018-06-09T03:16:49.368Z,29.31
2018-06-09T03:17:49.365Z,28.16
2018-06-09T03:18:49.358Z,29.41
2018-06-09T03:19:49.355Z,28.83
2018-06-09T03:20:49.356Z,30.55
2018-06-09T03:21:49.342Z,28.35
2018-06-09T03:22:49.336Z,30.18
2018-06-09T03:23:49.329Z,27.87
2018-06-09T03:24:49.330Z,29.98
2018-06-09T03:25:49.322Z,29.12
2018-06-09T03:26:49.313Z,27.78
2018-06-09T03:27:49.315Z,28.35
2018-06-09T03:28:49.309Z,27.87
2018-06-09T03:29:49.298Z,28.83
2018-06-09T03:30:49.291Z,30.27
2018-06-09T03:31:49.290Z,29.88
2018-06-09T03:32:49.281Z,31.32
2018-06-09T03:33:49.277Z,31.71
2018-06-09T03:34:49.270Z,34.96
2018-06-09T03:35:49.266Z,35.53
2018-06-09T03:36:49.264Z,35.83
2018-06-09T03:37:49.251Z,33.53
2018-06-09T03:38:49.248Z,36.30
2018-06-09T03:39:49.244Z,36.30
2018-06-09T03:40:49.240Z,36.88
2018-06-09T03:41:49.230Z,36.79
2018-06-09T03:42:49.224Z,43.01
2018-06-09T03:43:49.221Z,41.77
2018-06-09T03:44:49.213Z,39.65
2018-06-09T03:45:49.211Z,39.47
2018-06-09T03:46:49.203Z,38.12
2018-06-09T03:47:49.198Z,39.94
2018-06-09T03:48:49.215Z,40.04
2018-06-09T03:49:49.181Z,43.41
2018-06-09T03:50:49.180Z,38.70
2018-06-09T03:51:49.175Z,40.42
2018-06-09T03:52:49.166Z,39.37
2018-06-09T03:53:49.162Z,41.09
2018-06-09T03:54:49.155Z,40.04
2018-06-09T03:55:49.156Z,39.94
2018-06-09T03:56:49.148Z,42.46
2018-06-09T03:57:49.142Z,41.97
2018-06-09T03:58:49.137Z,41.02
2018-06-09T03:59:49.133Z,41.21
2018-06-09T04:00:49.141Z,40.92
2018-06-09T04:01:49.119Z,40.44
2018-06-09T04:02:49.115Z,40.83
2018-06-09T04:03:49.109Z,38.70
2018-06-09T04:04:49.102Z,43.51
2018-06-09T04:05:49.097Z,47.15
2018-06-09T04:06:49.094Z,48.97
2018-06-09T04:07:49.087Z,46.67
2018-06-09T04:08:49.122Z,46.19
2018-06-09T04:09:49.084Z,45.52
2018-06-09T04:10:49.068Z,44.95
2018-06-09T04:11:49.065Z,47.06
2018-06-09T04:12:49.057Z,46.58
2018-06-09T04:13:49.052Z,50.99
2018-06-09T04:14:49.046Z,53.67
2018-06-09T04:15:49.045Z,51.18
2018-06-09T04:16:49.043Z,50.89
2018-06-09T04:17:49.056Z,54.91
2018-06-09T04:18:49.025Z,55.68
2018-06-09T04:19:49.031Z,48.30
2018-06-09T04:20:49.060Z,51.46
2018-06-09T04:21:49.013Z,51.65
2018-06-09T04:22:49.004Z,54.82
2018-06-09T04:23:49.000Z,53.38
2018-06-09T04:24:49.010Z,50.99
2018-06-09T04:25:49.009Z,52.52
2018-06-09T04:26:48.978Z,51.28
2018-06-09T04:27:48.987Z,54.53
2018-06-09T04:28:48.975Z,54.44
2018-06-09T04:29:48.968Z,52.71
2018-06-09T04:30:48.965Z,50.70
2018-06-09T04:31:48.959Z,52.14
2018-06-09T04:32:48.953Z,53.77
2018-06-09T04:33:48.948Z,55.87
2018-06-09T04:34:48.964Z,54.44
2018-06-09T04:35:48.936Z,55.49
2018-06-09T04:36:48.941Z,55.21
2018-06-09T04:37:48.925Z,54.24
2018-06-09T04:38:48.913Z,52.04
2018-06-09T04:39:48.935Z,54.82
2018-06-09T04:40:48.908Z,52.23
2018-06-09T04:41:48.904Z,54.82
2018-06-09T04:42:48.901Z,55.21
2018-06-09T04:43:48.892Z,52.52
2018-06-09T04:44:48.907Z,53.19
2018-06-09T04:45:48.886Z,52.81
2018-06-09T04:46:48.874Z,53.77
2018-06-09T04:47:48.864Z,53.86
2018-06-09T04:48:48.872Z,52.52
2018-06-09T04:49:48.856Z,52.42
2018-06-09T04:50:48.858Z,52.52
2018-06-09T04:51:48.849Z,54.46
2018-06-09T04:52:48.844Z,55.78
2018-06-09T04:53:48.839Z,55.58
2018-06-09T04:54:48.850Z,53.79
2018-06-09T04:55:48.821Z,50.89
2018-06-09T04:56:48.822Z,53.96
2018-06-09T04:57:48.809Z,51.37
2018-06-09T04:58:48.813Z,51.56
2018-06-09T04:59:48.801Z,53.31
2018-06-09T05:00:48.798Z,53.38
2018-06-09T05:01:48.790Z,51.37
2018-06-09T05:02:48.786Z,55.40
2018-06-09T05:03:48.781Z,50.24
2018-06-09T05:04:48.780Z,50.60
2018-06-09T05:05:48.768Z,52.04
2018-06-09T05:06:48.773Z,54.46
2018-06-09T05:07:48.764Z,56.48
2018-06-09T05:08:48.753Z,53.70
2018-06-09T05:09:48.745Z,53.79
2018-06-09T05:10:48.741Z,53.70
2018-06-09T05:11:48.744Z,52.26
2018-06-09T05:12:48.741Z,52.45
2018-06-09T05:13:48.732Z,55.62
2018-06-09T05:14:48.720Z,56.86
2018-06-09T05:15:48.725Z,54.27
2018-06-09T05:16:48.717Z,52.64
2018-06-09T05:17:48.708Z,59.83
2018-06-09T05:18:48.706Z,56.96
2018-06-09T05:19:48.695Z,53.22
2018-06-09T05:20:48.689Z,54.66
2018-06-09T05:21:48.684Z,56.89
2018-06-09T05:22:48.682Z,54.37
2018-06-09T05:23:48.676Z,54.78
2018-06-09T05:24:48.671Z,55.45
2018-06-09T05:25:48.666Z,53.82
2018-06-09T05:26:48.666Z,52.67
2018-06-09T05:27:48.687Z,52.09
2018-06-09T05:28:48.651Z,54.97
2018-06-09T05:29:48.640Z,54.23
2018-06-09T05:30:48.639Z,50.87
2018-06-09T05:31:48.638Z,62.19
2018-06-09T05:32:48.636Z,49.05
2018-06-09T05:33:48.625Z,52.69
2018-06-09T05:34:48.622Z,54.64
2018-06-09T05:35:48.619Z,63.28
2018-06-09T05:36:48.614Z,54.55
2018-06-09T05:37:48.609Z,59.73
2018-06-09T05:38:48.603Z,63.76
2018-06-09T05:39:48.599Z,63.57
2018-06-09T05:40:48.596Z,61.65
2018-06-09T05:41:48.592Z,58.13
2018-06-09T05:42:48.592Z,60.78
2018-06-09T05:43:48.587Z,67.99
2018-06-09T05:44:48.584Z,62.32
2018-06-09T05:45:48.576Z,65.62
2018-06-09T05:46:48.576Z,69.66
2018-06-09T05:47:48.574Z,61.49
2018-06-09T05:48:48.566Z,58.99
2018-06-09T05:49:48.563Z,63.32
2018-06-09T05:50:48.565Z,60.82
2018-06-09T05:51:48.561Z,56.59
2018-06-09T05:52:48.554Z,65.23
2018-06-09T05:53:48.553Z,66.97
2018-06-09T05:54:48.548Z,68.89
2018-06-09T05:55:48.548Z,72.54
2018-06-09T05:56:48.543Z,75.32
2018-06-09T05:57:48.536Z,71.19
2018-06-09T05:58:48.535Z,70.04
2018-06-09T05:59:48.528Z,68.89
2018-06-09T06:00:48.528Z,74.08
2018-06-09T06:01:48.526Z,69.95
2018-06-09T06:02:48.526Z,73.11
2018-06-09T06:03:48.519Z,66.58
2018-06-09T06:04:48.515Z,67.16
2018-06-09T06:05:48.508Z,69.08
2018-06-09T06:06:48.505Z,66.49
2018-06-09T06:07:48.500Z,61.01
2018-06-09T06:08:48.497Z,68.21
2018-06-09T06:09:48.498Z,70.90
2018-06-09T06:10:48.493Z,70.04
2018-06-09T06:11:48.493Z,67.35
2018-06-09T06:12:48.486Z,59.47
2018-06-09T06:13:48.488Z,61.58
2018-06-09T06:14:48.485Z,59.57
2018-06-09T06:15:48.477Z,61.68
2018-06-09T06:16:48.472Z,63.60
2018-06-09T06:17:48.478Z,66.52
2018-06-09T06:18:48.514Z,63.99
2018-06-09T06:19:48.462Z,60.63
2018-06-09T06:20:48.463Z,65.81
2018-06-09T06:21:48.460Z,66.61
2018-06-09T06:22:48.455Z,63.83
2018-06-09T06:23:48.455Z,67.19
2018-06-09T06:24:48.448Z,61.33
2018-06-09T06:25:48.445Z,59.50
2018-06-09T06:26:48.441Z,61.14
2018-06-09T06:27:48.446Z,72.38
2018-06-09T06:28:48.433Z,56.81
2018-06-09T06:29:48.431Z,59.89
2018-06-09T06:30:48.429Z,60.94
2018-06-09T06:31:48.427Z,58.73
2018-06-09T06:32:48.426Z,61.33
2018-06-09T06:33:48.421Z,60.27
2018-06-09T06:34:48.415Z,61.81
2018-06-09T06:35:48.412Z,68.54
2018-06-09T06:36:48.415Z,65.37
2018-06-09T06:37:48.407Z,71.04
2018-06-09T06:38:48.406Z,69.98
2018-06-09T06:39:48.400Z,62.48
2018-06-09T06:40:48.399Z,72.80
2018-06-09T06:41:48.394Z,65.69
2018-06-09T06:42:48.406Z,67.71
2018-06-09T06:43:48.392Z,69.53
2018-06-09T06:44:48.387Z,69.24
2018-06-09T06:45:48.383Z,68.67
2018-06-09T06:46:48.381Z,68.19
2018-06-09T06:47:48.376Z,69.24
2018-06-09T06:48:48.377Z,75.40
2018-06-09T06:49:48.371Z,68.96
2018-06-09T06:50:48.370Z,72.52
2018-06-09T06:51:48.366Z,72.90
2018-06-09T06:52:48.361Z,65.50
2018-06-09T06:53:48.360Z,73.77
2018-06-09T06:54:48.361Z,71.88
2018-06-09T06:55:48.356Z,69.15
2018-06-09T06:56:48.354Z,74.67
2018-06-09T06:57:48.349Z,68.41
2018-06-09T06:58:48.353Z,77.17
2018-06-09T06:59:48.344Z,77.46
2018-06-09T07:00:48.343Z,74.09
2018-06-09T07:01:48.340Z,70.53
2018-06-09T07:02:48.338Z,71.11
2018-06-09T07:03:48.334Z,71.30
2018-06-09T07:04:48.333Z,78.75
2018-06-09T07:05:48.331Z,74.61
2018-06-09T07:06:48.334Z,78.36
2018-06-09T07:07:48.336Z,80.48
2018-06-09T07:08:48.323Z,80.10
2018-06-09T07:09:48.326Z,80.91
2018-06-09T07:10:48.320Z,81.10
2018-06-09T07:11:48.315Z,76.57
2018-06-09T07:12:48.315Z,77.53
2018-06-09T07:13:48.315Z,71.85
2018-06-09T07:14:48.312Z,73.97
2018-06-09T07:15:48.322Z,77.73
2018-06-09T07:16:48.307Z,81.96
2018-06-09T07:17:48.308Z,74.84
2018-06-09T07:18:48.312Z,75.55
2018-06-09T07:19:48.303Z,79.98
2018-06-09T07:20:48.301Z,74.30
2018-06-09T07:21:48.303Z,84.07
2018-06-09T07:22:48.300Z,76.36
2018-06-09T07:23:48.302Z,81.85
2018-06-09T07:24:48.293Z,85.71
2018-06-09T07:25:48.293Z,83.05
2018-06-09T07:26:48.294Z,88.45
2018-06-09T07:27:48.295Z,83.83
2018-06-09T07:28:48.296Z,83.15
2018-06-09T07:29:48.295Z,82.67
2018-06-09T07:30:48.297Z,79.00
2018-06-09T07:31:48.296Z,74.51
2018-06-09T07:32:48.299Z,78.17
2018-06-09T07:33:48.295Z,83.00
2018-06-09T07:34:48.296Z,84.68
2018-06-09T07:35:48.301Z,80.82
2018-06-09T07:36:48.301Z,95.68
2018-06-09T07:37:48.301Z,89.94
2018-06-09T07:38:48.306Z,87.23
2018-06-09T07:39:48.303Z,92.74
2018-06-09T07:40:48.309Z,89.69
2018-06-09T07:41:48.305Z,86.11
2018-06-09T07:42:48.308Z,87.37
2018-06-09T07:43:48.309Z,85.97
2018-06-09T07:44:48.312Z,84.61
2018-06-09T07:45:48.315Z,90.51
2018-06-09T07:46:48.320Z,91.09
2018-06-09T07:47:48.323Z,80.49
2018-06-09T07:48:48.324Z,83.40
2018-06-09T07:49:48.328Z,92.97
2018-06-09T07:50:48.328Z,88.53
2018-06-09T07:51:48.338Z,91.82
2018-06-09T07:52:48.340Z,92.78
2018-06-09T07:53:48.344Z,88.53
2018-06-09T07:54:48.350Z,91.62
2018-06-09T07:55:48.343Z,90.65
2018-06-09T07:56:48.350Z,91.42
2018-06-09T07:57:48.351Z,91.14
2018-06-09T07:58:48.388Z,92.20
2018-06-09T07:59:48.361Z,90.17
2018-06-09T08:00:48.363Z,90.84
2018-06-09T08:01:48.366Z,91.14
2018-06-09T08:02:48.368Z,89.29
2018-06-09T08:03:48.370Z,90.07
2018-06-09T08:04:48.374Z,88.71
2018-06-09T08:05:48.379Z,89.25
2018-06-09T08:06:48.395Z,87.13
2018-06-09T08:07:48.382Z,88.96
2018-06-09T08:08:48.385Z,91.62
2018-06-09T08:09:48.389Z,89.54
2018-06-09T08:10:48.392Z,90.12
2018-06-09T08:11:48.396Z,88.87
2018-06-09T08:12:48.398Z,90.51
2018-06-09T08:13:48.402Z,78.08
2018-06-09T08:14:48.411Z,86.01
2018-06-09T08:15:48.411Z,95.15
2018-06-09T08:16:48.415Z,90.02
2018-06-09T08:17:48.415Z,89.73
2018-06-09T08:18:48.420Z,87.16
2018-06-09T08:19:48.423Z,91.22
2018-06-09T08:20:48.428Z,92.29
2018-06-09T08:21:48.430Z,84.45
2018-06-09T08:22:48.434Z,93.84
2018-06-09T08:23:48.441Z,90.06
2018-06-09T08:24:48.446Z,85.61
2018-06-09T08:25:48.448Z,91.08
2018-06-09T08:26:48.455Z,91.47
2018-06-09T08:27:48.461Z,86.23
2018-06-09T08:28:48.466Z,88.27
2018-06-09T08:29:48.470Z,84.10
2018-06-09T08:30:48.472Z,86.04
2018-06-09T08:31:48.478Z,87.16
2018-06-09T08:32:48.480Z,89.04
2018-06-09T08:33:48.489Z,86.38
2018-06-09T08:34:48.494Z,84.64
2018-06-09T08:35:48.492Z,90.64
2018-06-09T08:36:48.501Z,89.23
2018-06-09T08:37:48.504Z,90.78
2018-06-09T08:38:48.510Z,87.78
2018-06-09T08:39:48.516Z,82.84
2018-06-09T08:40:48.522Z,85.17
2018-06-09T08:41:48.528Z,87.16
2018-06-09T08:42:48.530Z,88.23
2018-06-09T08:43:48.536Z,87.54
2018-06-09T08:44:48.543Z,87.16
2018-06-09T08:45:48.545Z,90.55
2018-06-09T08:46:48.551Z,89.19
2018-06-09T08:47:48.558Z,90.26
2018-06-09T08:48:48.556Z,87.93
2018-06-09T08:49:48.564Z,88.27
2018-06-09T08:50:48.571Z,88.90
2018-06-09T08:51:48.574Z,91.85
2018-06-09T08:52:48.581Z,88.51
2018-06-09T08:53:48.587Z,85.31
2018-06-09T08:54:48.589Z,84.25
2018-06-09T08:55:48.595Z,89.09
2018-06-09T08:56:48.608Z,87.26
2018-06-09T08:57:48.598Z,86.29
2018-06-09T08:58:48.608Z,87.93
2018-06-09T08:59:48.607Z,89.77
2018-06-09T09:00:48.616Z,87.88
2018-06-09T09:01:48.615Z,84.10
2018-06-09T09:02:48.627Z,87.88
2018-06-09T09:03:48.626Z,84.39
2018-06-09T09:04:48.627Z,85.30
2018-06-09T09:05:48.639Z,87.15
2018-06-09T09:06:48.644Z,84.53
2018-06-09T09:07:48.642Z,86.57
2018-06-09T09:08:48.649Z,75.03
2018-06-09T09:09:48.653Z,89.09
2018-06-09T09:10:48.655Z,86.47
2018-06-09T09:11:48.658Z,84.43
2018-06-09T09:12:48.665Z,83.85
2018-06-09T09:13:48.663Z,89.18
2018-06-09T09:14:48.677Z,83.56
2018-06-09T09:15:48.686Z,89.28
2018-06-09T09:16:48.681Z,90.39
2018-06-09T09:17:48.691Z,91.17
2018-06-09T09:18:48.698Z,89.85
2018-06-09T09:19:48.697Z,82.38
2018-06-09T09:20:48.707Z,77.92
2018-06-09T09:21:48.708Z,81.41
2018-06-09T09:22:48.720Z,86.26
2018-06-09T09:23:48.722Z,82.18
2018-06-09T09:24:48.726Z,84.22
2018-06-09T09:25:48.747Z,85.19
2018-06-09T09:26:48.740Z,85.29
2018-06-09T09:27:48.742Z,84.91
2018-06-09T09:28:48.752Z,85.29
2018-06-09T09:29:48.757Z,87.91
2018-06-09T09:30:48.765Z,89.47
2018-06-09T09:31:48.772Z,88.20
2018-06-09T09:32:48.790Z,87.18
2018-06-09T09:33:48.793Z,84.81
2018-06-09T09:34:48.792Z,82.38
2018-06-09T09:35:48.796Z,82.77
2018-06-09T09:36:48.802Z,84.81
2018-06-09T09:37:48.811Z,85.29
2018-06-09T09:38:48.814Z,83.20
2018-06-09T09:39:48.822Z,88.05
2018-06-09T09:40:48.835Z,84.99
2018-06-09T09:41:48.835Z,79.64
2018-06-09T09:42:48.840Z,84.11
2018-06-09T09:43:48.845Z,87.41
2018-06-09T09:44:48.854Z,83.24
2018-06-09T09:45:48.858Z,81.01
2018-06-09T09:46:48.868Z,81.30
2018-06-09T09:47:48.875Z,83.14
2018-06-09T09:48:48.878Z,85.18
2018-06-09T09:49:48.939Z,84.01
2018-06-09T09:50:48.892Z,83.39
2018-06-09T09:51:48.898Z,85.57
2018-06-09T09:52:48.904Z,80.91
2018-06-09T09:53:48.906Z,81.65
2018-06-09T09:54:48.947Z,84.17
2018-06-09T09:55:48.917Z,80.87
2018-06-09T09:56:48.927Z,78.44
2018-06-09T09:57:48.933Z,85.72
2018-06-09T09:58:48.937Z,83.97
2018-06-09T09:59:48.944Z,83.97
2018-06-09T10:00:48.949Z,80.09
2018-06-09T10:01:48.957Z,83.97
2018-06-09T10:02:48.957Z,88.34
2018-06-09T10:03:48.970Z,84.85
2018-06-09T10:04:48.972Z,87.12
2018-06-09T10:05:49.012Z,86.25
2018-06-09T10:06:48.980Z,84.60
2018-06-09T10:07:48.984Z,84.31
2018-06-09T10:08:48.990Z,78.77
2018-06-09T10:09:48.991Z,80.38
2018-06-09T10:10:49.000Z,81.93
2018-06-09T10:11:49.009Z,84.36
2018-06-09T10:12:49.013Z,84.94
2018-06-09T10:13:49.018Z,82.32
2018-06-09T10:14:49.026Z,88.15
2018-06-09T10:15:49.027Z,85.53
2018-06-09T10:16:49.040Z,80.48
2018-06-09T10:17:49.039Z,79.80
2018-06-09T10:18:49.043Z,78.92
2018-06-09T10:19:49.048Z,81.41
2018-06-09T10:20:49.052Z,82.67
2018-06-09T10:21:49.054Z,83.45
2018-06-09T10:22:49.060Z,86.01
2018-06-09T10:23:49.066Z,87.04
2018-06-09T10:24:49.071Z,82.97
2018-06-09T10:25:49.072Z,85.29
2018-06-09T10:26:49.076Z,88.54
2018-06-09T10:27:49.086Z,83.84
2018-06-09T10:28:49.100Z,83.15
2018-06-09T10:29:49.090Z,84.32
2018-06-09T10:30:49.096Z,86.36
2018-06-09T10:31:49.099Z,84.91
2018-06-09T10:32:49.116Z,85.49
2018-06-09T10:33:49.105Z,83.06
2018-06-09T10:34:49.108Z,85.29
2018-06-09T10:35:49.112Z,87.72
2018-06-09T10:36:49.123Z,83.29
2018-06-09T10:37:49.120Z,82.18
2018-06-09T10:38:49.122Z,81.70
2018-06-09T10:39:49.130Z,87.47
2018-06-09T10:40:49.131Z,85.33
2018-06-09T10:41:49.135Z,84.27
2018-06-09T10:42:49.141Z,84.85
2018-06-09T10:43:49.143Z,85.67
2018-06-09T10:44:49.158Z,86.78
2018-06-09T10:45:49.162Z,83.76
2018-06-09T10:46:49.176Z,88.67
2018-06-09T10:47:49.162Z,83.71
2018-06-09T10:48:49.170Z,80.25
2018-06-09T10:49:49.172Z,83.46
2018-06-09T10:50:49.180Z,79.76
2018-06-09T10:51:49.180Z,86.61
2018-06-09T10:52:49.188Z,79.90
2018-06-09T10:53:49.196Z,75.16
2018-06-09T10:54:49.198Z,75.75
2018-06-09T10:55:49.216Z,79.55
2018-06-09T10:56:49.241Z,75.95
2018-06-09T10:57:49.221Z,80.72
2018-06-09T10:58:49.229Z,77.25
2018-06-09T10:59:49.234Z,73.45
2018-06-09T11:00:49.239Z,75.10
2018-06-09T11:01:50.245Z,72.47
2018-06-09T11:02:49.254Z,75.24
2018-06-09T11:03:49.264Z,71.31
2018-06-09T11:04:49.266Z,70.14
2018-06-09T11:05:49.279Z,69.65
2018-06-09T11:06:49.286Z,69.75
2018-06-09T11:07:49.295Z,73.22
2018-06-09T11:08:49.303Z,73.61
2018-06-09T11:09:49.365Z,72.19
2018-06-09T11:10:49.321Z,72.15
2018-06-09T11:11:49.324Z,69.81
2018-06-09T11:12:49.337Z,70.78
2018-06-09T11:13:49.345Z,73.12
2018-06-09T11:14:49.372Z,71.76
2018-06-09T11:15:49.362Z,72.54
2018-06-09T11:16:49.375Z,70.30
2018-06-09T11:17:49.379Z,82.80
2018-06-09T11:18:49.384Z,75.30
2018-06-09T11:19:49.396Z,71.60
2018-06-09T11:20:49.399Z,72.47
2018-06-09T11:21:49.412Z,71.50
2018-06-09T11:22:49.423Z,67.80
2018-06-09T11:23:49.437Z,67.70
2018-06-09T11:24:49.443Z,68.64
2018-06-09T11:25:49.452Z,75.01
2018-06-09T11:26:49.461Z,70.33
2018-06-09T11:27:49.468Z,78.85
2018-06-09T11:28:49.476Z,75.08
2018-06-09T11:29:49.482Z,72.16
2018-06-09T11:30:49.489Z,69.17
2018-06-09T11:31:49.498Z,65.75
2018-06-09T11:32:49.515Z,64.48
2018-06-09T11:33:49.518Z,64.03
2018-06-09T11:34:49.529Z,72.22
2018-06-09T11:35:49.538Z,74.83
2018-06-09T11:36:49.544Z,72.23
2018-06-09T11:37:49.553Z,66.37
2018-06-09T11:38:49.601Z,66.96
2018-06-09T11:39:49.567Z,64.87
2018-06-09T11:40:49.585Z,64.68
2018-06-09T11:41:49.596Z,64.36
2018-06-09T11:42:49.601Z,65.69
2018-06-09T11:43:49.611Z,72.35
2018-06-09T11:44:49.618Z,67.54
2018-06-09T11:45:49.631Z,65.07
2018-06-09T11:46:49.637Z,66.83
2018-06-09T11:47:49.644Z,66.50
2018-06-09T11:48:49.655Z,69.36
2018-06-09T11:49:49.663Z,66.41
2018-06-09T11:50:50.283Z,67.60
2018-06-09T11:51:49.690Z,67.77
2018-06-09T11:52:49.690Z,69.81
2018-06-09T11:53:49.699Z,69.36
2018-06-09T11:54:49.713Z,67.99
2018-06-09T11:55:49.712Z,69.32
2018-06-09T11:56:49.733Z,72.25
2018-06-09T11:57:49.734Z,71.01
2018-06-09T11:58:49.745Z,69.17
2018-06-09T11:59:49.751Z,67.60
2018-06-09T12:00:49.762Z,69.52
2018-06-09T12:01:49.818Z,68.45
2018-06-09T12:02:49.778Z,67.63
2018-06-09T12:03:49.794Z,68.51
2018-06-09T12:04:49.800Z,69.65
2018-06-09T12:05:49.829Z,71.59
2018-06-09T12:06:49.824Z,71.78
2018-06-09T12:07:49.837Z,73.83
2018-06-09T12:08:49.833Z,83.31
2018-06-09T12:09:49.839Z,76.68
2018-06-09T12:10:49.851Z,80.33
2018-06-09T12:11:49.855Z,73.02
2018-06-09T12:12:49.865Z,70.10
2018-06-09T12:13:49.878Z,70.26
2018-06-09T12:14:49.883Z,69.10
2018-06-09T12:15:49.896Z,70.26
2018-06-09T12:16:49.900Z,71.14
2018-06-09T12:17:49.927Z,70.95
2018-06-09T12:18:49.938Z,72.47
2018-06-09T12:19:49.930Z,73.73
2018-06-09T12:20:49.929Z,72.17
2018-06-09T12:21:49.935Z,72.27
2018-06-09T12:22:49.942Z,73.34
2018-06-09T12:23:49.949Z,74.90
2018-06-09T12:24:49.960Z,73.54
2018-06-09T12:25:49.964Z,72.96
2018-06-09T12:26:49.975Z,75.87
2018-06-09T12:27:49.976Z,72.66
2018-06-09T12:28:49.989Z,72.17
2018-06-09T12:29:49.992Z,71.30
2018-06-09T12:30:50.006Z,72.76
2018-06-09T12:31:50.006Z,73.15
2018-06-09T12:32:50.019Z,70.32
2018-06-09T12:33:50.025Z,71.20
2018-06-09T12:34:50.030Z,71.78
2018-06-09T12:35:50.049Z,72.17
2018-06-09T12:36:50.045Z,73.73
2018-06-09T12:37:50.057Z,72.76
2018-06-09T12:38:50.059Z,70.23
2018-06-09T12:39:50.084Z,71.88
2018-06-09T12:40:50.085Z,71.01
2018-06-09T12:41:50.071Z,70.72
2018-06-09T12:42:50.082Z,71.69
2018-06-09T12:43:50.091Z,72.27
2018-06-09T12:44:50.099Z,74.35
2018-06-09T12:45:50.100Z,72.70
2018-06-09T12:46:50.117Z,70.01
2018-06-09T12:47:50.121Z,67.57
2018-06-09T12:48:50.160Z,76.96
2018-06-09T12:49:50.183Z,67.41
2018-06-09T12:50:50.136Z,67.70
2018-06-09T12:51:50.145Z,65.56
2018-06-09T12:52:50.157Z,73.68